Time;durP1;ratioP1;P1;durP2;ratioP2;P2;SDS_P1;SDS_P2;PMS_P1;PMS_P2;Temp;Humidity;BMP_temperature;BMP_pressure;BME280_temperature;BME280_humidity;BME280_pressure;Samples;Min_cycle;Max_cycle;Signal;HPM_P1;HPM_P2
2022/04/25 00:01:00;;;;;;;16.63;8.70;;;9.30;99.90;;;;;;5004661;28;20034;-72
2022/04/25 00:03:26;;;;;;;15.10;8.38;;;9.30;99.90;;;;;;5011809;28;20046;-72
2022/04/25 00:05:52;;;;;;;17.27;8.77;;;9.40;99.90;;;;;;5001185;28;20074;-72
2022/04/25 00:08:18;;;;;;;14.02;8.82;;;9.40;99.90;;;;;;5008903;28;20042;-72
2022/04/25 00:10:43;;;;;;;15.23;8.45;;;9.40;99.90;;;;;;5005594;28;20103;-72
2022/04/25 00:13:09;;;;;;;15.10;9.30;;;9.40;99.90;;;;;;4999670;28;20038;-72
2022/04/25 00:15:34;;;;;;;16.40;9.30;;;9.40;99.90;;;;;;5007996;28;20054;-72
2022/04/25 00:18:00;;;;;;;15.25;8.95;;;9.30;99.90;;;;;;4996268;28;20053;-72
2022/04/25 00:20:25;;;;;;;15.43;9.43;;;9.30;99.90;;;;;;5012257;28;20061;-72
2022/04/25 00:22:51;;;;;;;14.82;9.68;;;9.30;99.90;;;;;;4996223;28;20038;-71
2022/04/25 00:25:17;;;;;;;15.68;9.02;;;9.30;99.90;;;;;;5028620;28;20121;-71
2022/04/25 00:27:42;;;;;;;15.32;10.15;;;9.30;99.90;;;;;;5029206;28;20046;-71
2022/04/25 00:30:08;;;;;;;15.60;9.55;;;9.30;99.90;;;;;;5028655;28;20047;-72
2022/04/25 00:32:34;;;;;;;17.13;9.55;;;9.30;99.90;;;;;;4996084;28;20097;-72
2022/04/25 00:35:00;;;;;;;15.93;9.93;;;9.30;99.90;;;;;;4990974;28;20486;-72
2022/04/25 00:37:25;;;;;;;16.58;9.65;;;9.30;99.90;;;;;;4999208;28;20048;-71
2022/04/25 00:39:51;;;;;;;15.32;9.50;;;9.40;99.90;;;;;;5004818;28;20062;-71
2022/04/25 00:42:16;;;;;;;15.88;9.35;;;9.30;99.90;;;;;;5012376;28;20039;-71
2022/04/25 00:44:42;;;;;;;15.60;10.05;;;9.30;99.90;;;;;;4999227;28;20038;-71
2022/04/25 00:47:09;;;;;;;17.00;9.70;;;9.30;99.90;;;;;;4999054;28;20042;-71
2022/04/25 00:49:35;;;;;;;15.90;10.13;;;9.30;99.90;;;;;;5004616;28;20049;-72
2022/04/25 00:52:00;;;;;;;17.98;10.05;;;9.30;99.90;;;;;;4998932;28;20481;-72
2022/04/25 00:54:26;;;;;;;15.75;9.70;;;9.30;99.90;;;;;;4998457;28;20121;-72
2022/04/25 00:56:52;;;;;;;13.80;9.02;;;9.30;99.90;;;;;;4995571;28;20486;-72
2022/04/25 00:59:21;;;;;;;15.25;9.57;;;9.30;99.90;;;;;;5027964;28;20073;-72
2022/04/25 01:01:47;;;;;;;17.08;9.68;;;9.20;99.90;;;;;;4996543;28;20042;-72
2022/04/25 01:04:13;;;;;;;15.05;9.63;;;9.20;99.90;;;;;;5008945;28;20042;-72
2022/04/25 01:06:40;;;;;;;17.17;9.93;;;9.20;99.90;;;;;;5015457;28;20057;-72
2022/04/25 01:09:06;;;;;;;16.85;9.68;;;9.20;99.90;;;;;;5006783;28;20387;-72
2022/04/25 01:11:31;;;;;;;14.50;9.60;;;9.10;99.90;;;;;;4998702;28;20042;-71
2022/04/25 01:13:57;;;;;;;17.38;10.52;;;9.20;99.90;;;;;;4988694;28;20049;-72
2022/04/25 01:16:22;;;;;;;14.32;9.73;;;9.20;99.90;;;;;;4979127;28;20038;-72
2022/04/25 01:18:48;;;;;;;17.48;10.40;;;9.20;99.90;;;;;;5027736;28;20038;-72
2022/04/25 01:21:17;;;;;;;15.45;9.25;;;9.10;99.90;;;;;;5026635;28;20057;-72
2022/04/25 01:29:12;;;;;;;16.63;10.35;;;9.10;99.90;;;;;;5029522;28;20045;-72
2022/04/25 01:31:38;;;;;;;17.08;10.73;;;9.00;99.90;;;;;;4998348;28;20044;-72
2022/04/25 01:34:04;;;;;;;14.43;9.88;;;9.00;99.90;;;;;;5012895;28;20124;-72
2022/04/25 01:36:30;;;;;;;15.07;9.95;;;9.00;99.90;;;;;;5014399;28;20049;-72
2022/04/25 01:38:56;;;;;;;16.40;10.13;;;9.00;99.90;;;;;;5009540;28;20034;-72
2022/04/25 01:41:22;;;;;;;18.17;10.70;;;8.90;99.90;;;;;;5007567;28;20045;-72
2022/04/25 01:43:48;;;;;;;15.07;10.00;;;8.90;99.90;;;;;;5024217;28;20039;-72
2022/04/25 01:46:14;;;;;;;17.15;9.85;;;8.90;99.90;;;;;;5027638;28;20061;-72
2022/04/25 01:48:39;;;;;;;18.35;10.20;;;9.00;99.90;;;;;;5006435;28;20046;-72
2022/04/25 01:51:05;;;;;;;17.15;9.68;;;8.90;99.90;;;;;;5010905;28;20125;-72
2022/04/25 01:53:31;;;;;;;14.98;9.95;;;8.90;99.90;;;;;;5027207;28;20034;-71
2022/04/25 01:55:56;;;;;;;14.35;9.18;;;8.70;99.90;;;;;;5027268;28;20038;-72
2022/04/25 01:58:22;;;;;;;15.40;9.45;;;8.70;99.90;;;;;;4992118;28;20042;-72
2022/04/25 02:00:47;;;;;;;18.23;10.07;;;8.80;99.90;;;;;;4995525;28;20045;-72
2022/04/25 02:03:13;;;;;;;16.20;9.80;;;8.70;99.90;;;;;;5027118;28;20045;-72
2022/04/25 02:05:39;;;;;;;16.08;9.63;;;8.60;99.90;;;;;;5009982;28;20037;-72
2022/04/25 02:08:05;;;;;;;15.02;9.68;;;8.60;99.90;;;;;;5014182;28;20514;-73
2022/04/25 02:10:31;;;;;;;14.68;9.35;;;8.60;99.90;;;;;;4996170;28;20064;-72
2022/04/25 02:12:56;;;;;;;17.85;9.57;;;8.70;99.90;;;;;;4996352;28;20490;-72
2022/04/25 02:15:22;;;;;;;16.02;9.88;;;8.80;99.90;;;;;;4978052;28;20042;-72
2022/04/25 02:17:48;;;;;;;15.55;9.07;;;8.60;99.90;;;;;;4994147;28;20566;-72
2022/04/25 02:20:14;;;;;;;14.63;8.18;;;8.70;99.90;;;;;;5006810;28;20058;-72
2022/04/25 02:22:40;;;;;;;14.05;9.23;;;8.80;99.90;;;;;;4986469;28;20046;-72
2022/04/25 02:25:07;;;;;;;16.75;9.07;;;8.80;99.90;;;;;;5013971;28;20385;-72
2022/04/25 02:27:32;;;;;;;16.45;8.48;;;8.80;99.90;;;;;;4983777;28;20521;-72
2022/04/25 02:29:58;;;;;;;16.50;9.57;;;8.80;99.90;;;;;;4995499;28;20042;-72
2022/04/25 02:32:24;;;;;;;17.90;9.23;;;8.80;99.90;;;;;;4995660;28;20038;-72
2022/04/25 02:34:53;;;;;;;13.88;8.30;;;8.90;99.90;;;;;;5000657;28;20080;-72
2022/04/25 02:37:19;;;;;;;16.00;8.25;;;8.90;99.90;;;;;;5023730;28;20042;-72
2022/04/25 02:39:44;;;;;;;14.50;8.68;;;8.80;99.90;;;;;;5026206;28;20037;-72
2022/04/25 02:42:10;;;;;;;13.88;7.68;;;8.80;99.90;;;;;;4993353;28;20495;-72
2022/04/25 02:44:36;;;;;;;17.23;8.40;;;8.90;99.90;;;;;;5009509;28;20518;-72
2022/04/25 02:47:01;;;;;;;13.55;7.95;;;8.90;99.90;;;;;;4995245;28;20042;-71
2022/04/25 02:49:27;;;;;;;14.65;7.57;;;9.10;99.90;;;;;;5010469;28;20038;-72
2022/04/25 02:51:52;;;;;;;13.27;7.28;;;9.10;99.90;;;;;;5007852;28;20034;-72
2022/04/25 02:54:18;;;;;;;17.65;8.73;;;9.10;99.90;;;;;;4994536;28;20116;-71
2022/04/25 02:56:44;;;;;;;13.50;7.85;;;9.00;99.90;;;;;;4977096;28;20042;-72
2022/04/25 02:59:09;;;;;;;13.02;8.38;;;8.90;99.90;;;;;;5022253;28;20446;-72
2022/04/25 03:01:35;;;;;;;15.60;8.80;;;8.80;99.90;;;;;;4980012;28;20081;-71
2022/04/25 03:04:01;;;;;;;15.77;8.18;;;8.80;99.90;;;;;;4993420;28;20038;-71
2022/04/25 03:06:26;;;;;;;18.55;7.95;;;9.00;99.90;;;;;;5008833;28;20084;-71
2022/04/25 03:08:52;;;;;;;14.52;8.25;;;9.10;99.90;;;;;;5002794;28;20034;-71
2022/04/25 03:11:18;;;;;;;16.13;8.93;;;8.90;99.90;;;;;;5006062;28;20122;-72
2022/04/25 03:13:43;;;;;;;17.65;8.93;;;8.90;99.90;;;;;;5025513;28;20048;-72
2022/04/25 03:16:09;;;;;;;15.63;8.18;;;8.70;99.90;;;;;;4985290;28;20030;-72
2022/04/25 03:18:35;;;;;;;14.05;8.63;;;8.90;99.90;;;;;;5012235;28;20100;-72
2022/04/25 03:21:01;;;;;;;13.55;8.55;;;8.90;99.90;;;;;;5010627;28;20056;-72
2022/04/25 03:23:27;;;;;;;13.32;8.90;;;8.90;99.90;;;;;;4982398;28;20069;-71
2022/04/25 03:25:53;;;;;;;14.57;8.75;;;8.90;99.90;;;;;;5001183;28;20429;-71
2022/04/25 03:28:20;;;;;;;16.85;9.65;;;8.90;99.90;;;;;;4993573;28;20116;-72
2022/04/25 03:30:45;;;;;;;14.30;8.63;;;8.90;99.90;;;;;;4978846;28;20045;-71
2022/04/25 03:33:12;;;;;;;15.25;9.40;;;8.90;99.90;;;;;;4992735;28;20047;-72
2022/04/25 03:35:41;;;;;;;14.63;9.38;;;8.80;99.90;;;;;;4992691;28;20057;-71
2022/04/25 03:38:08;;;;;;;13.80;9.25;;;8.80;99.90;;;;;;4992804;28;20042;-72
2022/04/25 03:40:35;;;;;;;16.10;9.23;;;8.70;99.90;;;;;;4976895;28;20046;-72
2022/04/25 03:43:00;;;;;;;15.68;9.55;;;8.70;99.90;;;;;;4976626;28;20544;-71
2022/04/25 03:45:26;;;;;;;15.77;8.43;;;8.80;99.90;;;;;;5008642;28;20034;-72
2022/04/25 03:47:53;;;;;;;16.65;9.20;;;8.90;99.90;;;;;;4992827;28;20049;-71
2022/04/25 03:50:19;;;;;;;14.00;8.43;;;8.80;99.90;;;;;;4976437;28;20499;-71
2022/04/25 03:52:45;;;;;;;14.25;8.27;;;8.80;99.90;;;;;;4992883;28;20557;-72
2022/04/25 03:57:57;;;;;;;14.70;8.82;;;8.80;99.90;;;;;;5008903;28;20050;-71
2022/04/25 04:00:23;;;;;;;16.58;9.18;;;8.70;99.90;;;;;;5001872;28;20037;-72
2022/04/25 04:02:49;;;;;;;13.50;8.20;;;8.70;99.90;;;;;;5003623;28;20038;-72
2022/04/25 04:05:15;;;;;;;14.95;8.90;;;8.70;99.90;;;;;;5009950;28;20041;-72
2022/04/25 04:07:41;;;;;;;14.70;8.77;;;8.70;99.90;;;;;;5019604;28;20041;-71
2022/04/25 04:10:07;;;;;;;14.52;8.20;;;8.80;99.90;;;;;;4997794;28;20038;-72
2022/04/25 04:12:36;;;;;;;14.05;8.50;;;8.70;99.90;;;;;;4991597;28;20125;-71
2022/04/25 04:15:04;;;;;;;15.10;8.70;;;8.70;99.90;;;;;;4976366;28;20084;-71
2022/04/25 04:17:30;;;;;;;15.32;9.27;;;8.60;99.90;;;;;;5008389;28;20039;-72
2022/04/25 04:19:56;;;;;;;15.20;8.98;;;8.60;99.90;;;;;;5025159;28;20454;-72
2022/04/25 04:22:23;;;;;;;14.20;8.75;;;8.70;99.90;;;;;;5008704;28;20104;-72
2022/04/25 04:24:49;;;;;;;14.57;8.30;;;8.70;99.90;;;;;;4979408;28;20463;-72
2022/04/25 04:27:15;;;;;;;15.43;9.02;;;8.80;99.90;;;;;;4995232;28;20078;-71
2022/04/25 04:29:41;;;;;;;15.27;9.45;;;8.70;99.90;;;;;;4988633;28;20491;-71
2022/04/25 04:32:08;;;;;;;15.57;9.40;;;8.60;99.90;;;;;;4992449;28;20042;-72
2022/04/25 04:34:35;;;;;;;11.93;8.43;;;8.70;99.90;;;;;;4992266;28;20413;-72
2022/04/25 04:37:02;;;;;;;14.45;8.38;;;8.50;99.90;;;;;;4976379;28;20077;-72
2022/04/25 04:39:28;;;;;;;14.35;9.25;;;8.60;99.90;;;;;;5025114;28;20486;-72
2022/04/25 04:41:54;;;;;;;13.23;7.93;;;8.60;99.90;;;;;;5025014;28;20126;-71
2022/04/25 04:44:20;;;;;;;14.27;8.63;;;8.70;99.90;;;;;;4992138;28;20034;-71
2022/04/25 04:46:45;;;;;;;15.02;8.63;;;8.70;99.90;;;;;;4992072;28;20164;-71
2022/04/25 04:49:11;;;;;;;13.77;7.63;;;8.60;99.90;;;;;;4976231;28;20487;-72
2022/04/25 04:51:36;;;;;;;12.27;7.88;;;8.70;99.90;;;;;;4992363;28;20038;-72
2022/04/25 04:54:02;;;;;;;14.13;7.47;;;8.70;99.90;;;;;;4975840;28;20049;-71
2022/04/25 04:56:32;;;;;;;12.90;7.80;;;8.70;99.90;;;;;;4978584;28;20121;-72
2022/04/25 04:58:58;;;;;;;13.63;7.30;;;8.60;99.90;;;;;;4995670;28;20553;-72
2022/04/25 05:01:25;;;;;;;14.18;7.07;;;8.60;99.90;;;;;;5004774;28;20129;-72
2022/04/25 05:03:51;;;;;;;12.48;6.90;;;8.70;99.90;;;;;;5003353;28;20553;-72
2022/04/25 05:06:16;;;;;;;13.82;7.63;;;8.80;99.90;;;;;;4990894;28;20030;-72
2022/04/25 05:08:42;;;;;;;11.45;6.93;;;8.80;99.90;;;;;;4998826;28;20509;-72
2022/04/25 05:11:09;;;;;;;12.45;7.35;;;8.80;99.90;;;;;;5013396;28;20045;-72
2022/04/25 05:13:36;;;;;;;13.75;6.82;;;8.70;99.90;;;;;;5005270;28;20503;-72
2022/04/25 05:16:03;;;;;;;12.98;7.35;;;8.70;99.90;;;;;;4985225;28;20030;-72
2022/04/25 05:18:32;;;;;;;11.55;6.90;;;8.70;99.90;;;;;;5029716;28;20045;-72
2022/04/25 05:20:58;;;;;;;12.75;7.55;;;8.70;99.90;;;;;;4992576;28;20407;-72
2022/04/25 05:23:24;;;;;;;12.48;6.93;;;8.50;99.90;;;;;;5027851;28;20077;-72
2022/04/25 05:25:50;;;;;;;13.48;7.65;;;8.60;99.90;;;;;;5027886;28;20457;-72
2022/04/25 05:28:15;;;;;;;13.68;7.32;;;8.60;99.90;;;;;;5011330;28;20081;-72
2022/04/25 05:30:42;;;;;;;14.18;7.28;;;8.70;99.90;;;;;;5027461;28;20080;-72
2022/04/25 05:33:09;;;;;;;11.15;7.25;;;8.70;99.90;;;;;;4995052;28;20050;-72
2022/04/25 05:35:35;;;;;;;15.13;7.43;;;8.70;99.90;;;;;;4978662;28;20042;-72
2022/04/25 05:38:02;;;;;;;11.77;7.75;;;8.70;99.90;;;;;;5027768;28;20039;-72
2022/04/25 05:40:27;;;;;;;13.25;7.38;;;8.60;99.90;;;;;;5027680;28;20047;-72
2022/04/25 05:42:56;;;;;;;15.20;8.23;;;8.70;99.90;;;;;;5028007;28;20057;-72
2022/04/25 05:45:24;;;;;;;12.88;8.05;;;8.70;99.90;;;;;;4994781;28;20049;-72
2022/04/25 05:47:51;;;;;;;15.35;8.45;;;8.70;99.90;;;;;;4978463;28;20046;-71
2022/04/25 05:53:03;;;;;;;14.48;7.55;;;8.70;99.90;;;;;;5011030;28;20042;-72
2022/04/25 05:55:30;;;;;;;13.57;8.20;;;8.70;99.90;;;;;;4978459;28;20070;-72
2022/04/25 05:57:57;;;;;;;15.63;8.07;;;8.90;99.90;;;;;;4994576;28;20046;-72
2022/04/25 06:00:22;;;;;;;13.23;8.63;;;8.70;99.90;;;;;;4978438;28;20124;-72
2022/04/25 06:02:48;;;;;;;14.38;7.97;;;8.70;99.90;;;;;;4999534;28;20073;-72
2022/04/25 06:05:15;;;;;;;12.95;7.80;;;8.50;99.90;;;;;;4984772;28;20046;-72
2022/04/25 06:07:43;;;;;;;12.13;7.22;;;8.50;99.90;;;;;;4994762;28;20382;-72
2022/04/25 06:10:10;;;;;;;12.90;7.38;;;8.70;99.90;;;;;;4998062;28;20058;-72
2022/04/25 06:12:44;;;;;;;14.73;7.65;;;8.80;99.90;;;;;;4995986;28;20161;-72
2022/04/25 06:15:10;;;;;;;12.15;6.82;;;8.80;99.90;;;;;;5002668;28;20042;-72
2022/04/25 06:17:37;;;;;;;12.23;6.90;;;8.80;99.90;;;;;;5006006;28;20052;-72
2022/04/25 06:20:04;;;;;;;13.80;7.38;;;8.90;99.90;;;;;;5013593;28;20054;-72
2022/04/25 06:22:29;;;;;;;11.55;7.25;;;8.90;99.90;;;;;;4987961;28;20034;-72
2022/04/25 06:24:55;;;;;;;11.70;6.65;;;9.00;99.90;;;;;;4994116;28;20113;-72
2022/04/25 06:27:20;;;;;;;11.90;6.57;;;8.80;99.90;;;;;;4995436;28;20047;-72
2022/04/25 06:29:46;;;;;;;12.07;6.63;;;8.90;99.90;;;;;;5000477;28;20038;-72
2022/04/25 06:32:13;;;;;;;16.35;7.45;;;9.00;99.90;;;;;;4989980;28;20042;-72
2022/04/25 06:34:39;;;;;;;14.13;6.97;;;8.80;99.90;;;;;;4977686;28;20590;-72
2022/04/25 06:37:06;;;;;;;12.52;7.35;;;8.80;99.90;;;;;;4977663;28;20061;-72
2022/04/25 06:39:32;;;;;;;12.27;6.43;;;8.80;99.90;;;;;;4993898;28;20161;-72
2022/04/25 06:41:57;;;;;;;11.70;6.13;;;8.80;99.90;;;;;;5006851;28;20038;-72
2022/04/25 06:44:23;;;;;;;12.65;6.60;;;9.00;99.90;;;;;;4974282;28;20045;-72
2022/04/25 06:46:49;;;;;;;11.85;7.13;;;9.00;99.90;;;;;;4974204;28;20118;-72
2022/04/25 06:49:21;;;;;;;14.10;8.18;;;9.00;99.90;;;;;;5023216;28;20045;-72
2022/04/25 06:51:56;;;;;;;13.77;7.60;;;8.80;99.90;;;;;;5009624;28;20049;-72
2022/04/25 06:54:24;;;;;;;12.00;6.88;;;8.70;99.90;;;;;;5024597;28;20034;-72
2022/04/25 06:56:51;;;;;;;16.88;8.25;;;8.80;99.90;;;;;;4975344;28;20050;-72
2022/04/25 06:59:18;;;;;;;14.30;8.10;;;8.80;99.90;;;;;;5002210;28;20042;-72
2022/04/25 07:01:44;;;;;;;13.18;7.90;;;8.70;99.90;;;;;;4977033;28;20113;-72
2022/04/25 07:04:11;;;;;;;12.50;7.47;;;8.70;99.90;;;;;;4992375;28;20122;-72
2022/04/25 07:06:38;;;;;;;10.50;6.50;;;8.70;99.90;;;;;;5025232;28;20056;-72
2022/04/25 07:09:04;;;;;;;12.90;7.70;;;8.60;99.90;;;;;;4973221;28;20043;-72
2022/04/25 07:11:29;;;;;;;14.00;7.00;;;8.60;99.90;;;;;;4986116;28;20402;-72
2022/04/25 07:13:55;;;;;;;12.15;6.82;;;8.70;99.90;;;;;;4990917;28;20117;-71
2022/04/25 07:16:21;;;;;;;11.80;6.25;;;8.70;99.90;;;;;;4974920;28;20034;-71
2022/04/25 07:18:46;;;;;;;9.05;5.72;;;8.80;99.90;;;;;;4991022;28;20042;-71
2022/04/25 07:29:24;;;;;;;12.30;7.35;;;8.80;99.90;;;;;;4992221;28;20169;-71
2022/04/25 07:31:53;;;;;;;13.77;6.90;;;8.80;99.90;;;;;;5021203;28;20117;-71
2022/04/25 07:34:20;;;;;;;14.45;7.45;;;8.80;99.90;;;;;;4963367;28;20045;-71
2022/04/25 07:36:51;;;;;;;12.93;7.03;;;8.70;99.90;;;;;;5024170;28;20125;-71
2022/04/25 07:39:18;;;;;;;13.27;7.23;;;8.80;99.90;;;;;;5005912;28;20400;-71
2022/04/25 07:41:44;;;;;;;13.68;7.38;;;8.70;99.90;;;;;;5024631;28;20038;-71
2022/04/25 07:44:10;;;;;;;12.95;7.63;;;8.80;99.90;;;;;;4972529;28;20042;-71
2022/04/25 07:46:36;;;;;;;13.57;7.57;;;8.70;99.90;;;;;;4991970;28;20402;-71
2022/04/25 07:49:02;;;;;;;15.52;7.65;;;8.80;99.90;;;;;;5018451;28;20046;-71
2022/04/25 07:51:27;;;;;;;14.00;8.05;;;8.70;99.90;;;;;;4987912;28;20059;-71
2022/04/25 07:53:53;;;;;;;19.23;8.15;;;8.70;99.90;;;;;;5024391;28;20077;-71
2022/04/25 07:56:18;;;;;;;13.40;8.05;;;8.50;99.90;;;;;;5024906;28;20070;-72
2022/04/25 07:58:45;;;;;;;14.10;7.68;;;8.60;99.90;;;;;;4975789;28;20049;-72
2022/04/25 08:01:11;;;;;;;14.52;8.13;;;8.60;99.90;;;;;;5024633;28;20046;-72
2022/04/25 08:03:37;;;;;;;15.25;7.88;;;8.70;99.90;;;;;;4992208;28;20053;-72
2022/04/25 08:06:03;;;;;;;14.18;8.18;;;8.50;99.90;;;;;;4975051;28;20441;-71
2022/04/25 08:08:29;;;;;;;14.20;8.32;;;8.50;99.90;;;;;;4991317;28;20042;-71
2022/04/25 08:10:54;;;;;;;17.92;8.32;;;8.50;99.90;;;;;;5024532;28;20049;-72
2022/04/25 08:18:49;;;;;;;14.23;8.85;;;8.60;99.90;;;;;;4991816;28;20057;-71
2022/04/25 08:21:15;;;;;;;14.00;8.05;;;8.60;99.90;;;;;;5021672;28;20090;-72
2022/04/25 08:23:41;;;;;;;14.85;8.77;;;8.60;99.90;;;;;;4982079;28;20494;-71
2022/04/25 08:26:06;;;;;;;14.65;8.63;;;8.60;99.90;;;;;;5011697;28;20038;-72
2022/04/25 08:28:32;;;;;;;13.85;7.97;;;8.70;99.90;;;;;;4995651;28;20046;-71
2022/04/25 08:30:58;;;;;;;13.43;8.80;;;8.90;99.90;;;;;;5016379;28;20035;-71
2022/04/25 08:33:23;;;;;;;15.40;9.23;;;8.90;99.90;;;;;;4995134;28;20085;-72
2022/04/25 08:35:49;;;;;;;14.48;8.57;;;8.80;99.90;;;;;;5021086;28;20065;-71
2022/04/25 08:38:14;;;;;;;13.50;8.05;;;8.80;99.90;;;;;;4978293;28;20088;-72
2022/04/25 08:40:41;;;;;;;13.93;8.35;;;8.90;99.90;;;;;;5016636;28;20122;-72
2022/04/25 08:43:09;;;;;;;14.30;7.43;;;8.90;99.90;;;;;;4999594;28;20035;-72
2022/04/25 08:45:37;;;;;;;17.33;8.23;;;9.00;99.90;;;;;;5027240;28;20034;-71
2022/04/25 08:48:03;;;;;;;18.55;8.90;;;8.90;99.90;;;;;;5028105;28;20498;-71
2022/04/25 08:50:30;;;;;;;14.10;8.88;;;8.80;99.90;;;;;;4992074;28;20062;-71
2022/04/25 08:52:56;;;;;;;15.73;8.23;;;8.70;99.90;;;;;;5016287;28;20049;-71
2022/04/25 08:55:23;;;;;;;17.52;8.23;;;8.70;99.90;;;;;;5027401;28;20046;-71
2022/04/25 08:57:50;;;;;;;16.60;8.20;;;8.70;99.90;;;;;;5026788;28;20450;-71
2022/04/25 09:00:16;;;;;;;15.75;8.05;;;8.80;99.90;;;;;;4977882;28;20042;-71
2022/04/25 09:02:44;;;;;;;12.82;8.02;;;8.90;99.90;;;;;;4974232;28;20039;-71
2022/04/25 09:05:11;;;;;;;14.30;8.10;;;8.90;99.90;;;;;;4966155;28;20065;-71
2022/04/25 09:07:37;;;;;;;12.65;7.60;;;8.80;99.90;;;;;;5014140;28;20038;-71
2022/04/25 09:10:15;;;;;;;13.00;7.07;;;9.00;99.90;;;;;;4978497;28;20084;-72
2022/04/25 09:12:42;;;;;;;14.25;8.50;;;8.90;99.90;;;;;;5010842;28;20046;-71
2022/04/25 09:15:08;;;;;;;16.23;7.45;;;8.80;99.90;;;;;;4995081;28;20118;-71
2022/04/25 09:17:38;;;;;;;10.18;5.97;;;8.80;99.90;;;;;;4988878;28;20042;-71
2022/04/25 09:20:05;;;;;;;14.27;7.63;;;8.80;99.90;;;;;;4978105;28;20572;-71
2022/04/25 09:22:33;;;;;;;11.90;7.28;;;8.80;99.90;;;;;;4977320;28;20482;-72
2022/04/25 09:25:11;;;;;;;14.02;6.20;;;8.70;99.90;;;;;;4974502;28;20035;-72
2022/04/25 09:27:39;;;;;;;12.18;6.65;;;8.80;99.90;;;;;;4979071;28;20043;-72
2022/04/25 09:30:23;;;;;;;14.88;6.38;;;8.90;99.90;;;;;;4997844;28;20042;-72
2022/04/25 09:32:52;;;;;;;10.70;5.53;;;8.90;99.90;;;;;;4991796;28;20529;-72
2022/04/25 09:35:28;;;;;;;12.93;5.82;;;9.00;99.90;;;;;;4995365;28;20081;-71
2022/04/25 09:37:55;;;;;;;10.93;5.35;;;8.90;99.90;;;;;;4993501;28;20038;-72
2022/04/25 09:40:22;;;;;;;10.07;5.40;;;9.00;99.90;;;;;;5009155;28;20074;-72
2022/04/25 09:43:05;;;;;;;10.35;4.85;;;9.00;99.90;;;;;;4982312;28;20041;-72
2022/04/25 09:45:31;;;;;;;;;;;9.00;99.90;;;;;;5005688;28;20041;-72
2022/04/25 09:47:57;;;;;;;13.27;5.22;;;9.10;99.90;;;;;;4986867;28;19949;-72
2022/04/25 09:50:27;;;;;;;9.93;5.20;;;9.10;99.90;;;;;;4977768;28;20046;-72
2022/04/25 09:53:03;;;;;;;10.90;5.22;;;9.20;99.90;;;;;;4977263;28;20106;-72
2022/04/25 09:55:30;;;;;;;10.02;5.38;;;9.20;99.90;;;;;;5010138;28;20046;-72
2022/04/25 09:57:56;;;;;;;11.23;5.72;;;9.20;99.90;;;;;;4976311;28;20054;-72
2022/04/25 10:00:33;;;;;;;11.88;5.18;;;9.30;99.90;;;;;;5024383;28;20038;-72
2022/04/25 10:03:00;;;;;;;14.18;6.03;;;9.30;99.90;;;;;;4991798;28;20070;-72
2022/04/25 10:05:38;;;;;;;9.98;6.35;;;9.40;99.90;;;;;;4976224;28;20073;-72
2022/04/25 10:08:05;;;;;;;11.50;6.00;;;9.30;99.90;;;;;;4973606;28;20046;-72
2022/04/25 10:10:32;;;;;;;9.43;5.72;;;9.50;99.90;;;;;;5022645;28;20113;-72
2022/04/25 10:12:59;;;;;;;14.15;6.78;;;9.60;99.90;;;;;;5009733;28;20042;-72
2022/04/25 10:15:25;;;;;;;11.55;5.60;;;9.60;99.90;;;;;;4973350;28;20085;-72
2022/04/25 10:17:53;;;;;;;13.35;6.15;;;9.70;99.90;;;;;;4982146;28;20043;-72
2022/04/25 10:20:18;;;;;;;13.88;5.97;;;9.90;99.90;;;;;;5025100;28;20058;-72
2022/04/25 10:22:44;;;;;;;11.13;6.53;;;10.10;99.90;;;;;;4981787;28;20043;-72
2022/04/25 10:25:10;;;;;;;11.85;5.78;;;10.30;99.90;;;;;;4989882;28;20113;-72
2022/04/25 10:27:39;;;;;;;8.95;5.55;;;10.50;99.90;;;;;;4990543;28;20074;-72
2022/04/25 10:30:14;;;;;;;12.57;6.03;;;10.70;99.90;;;;;;5009447;28;20030;-72
2022/04/25 10:32:41;;;;;;;10.32;6.38;;;10.80;99.90;;;;;;5009155;28;20038;-72
2022/04/25 10:35:13;;;;;;;10.73;5.82;;;10.80;99.90;;;;;;4993802;28;20079;-72
2022/04/25 10:37:41;;;;;;;11.38;6.20;;;10.90;99.90;;;;;;4976755;28;20047;-71
2022/04/25 10:40:13;;;;;;;11.07;5.95;;;11.00;99.90;;;;;;4994794;28;20042;-72
2022/04/25 10:45:52;;;;;;;9.30;5.32;;;10.90;99.90;;;;;;4992611;28;20314;-72
2022/04/25 10:48:18;;;;;;;11.20;6.45;;;11.00;99.90;;;;;;5025560;28;20423;-72
2022/04/25 10:51:06;;;;;;;10.10;5.50;;;10.90;99.90;;;;;;4972349;28;20503;-72
2022/04/25 10:54:01;;;;;;;12.55;6.85;;;11.00;99.90;;;;;;5009017;28;20089;-72
2022/04/25 10:56:31;;;;;;;10.55;6.60;;;10.90;99.90;;;;;;4991493;28;20089;-72
2022/04/25 10:59:25;;;;;;;11.05;6.45;;;10.90;99.90;;;;;;5000667;28;20042;-72
2022/04/25 11:01:58;;;;;;;12.82;5.93;;;11.10;99.90;;;;;;4976430;28;20066;-72
2022/04/25 11:04:23;;;;;;;10.55;6.03;;;11.00;99.90;;;;;;5009517;28;20064;-72
2022/04/25 11:07:19;;;;;;;10.45;6.20;;;11.10;99.90;;;;;;4975006;28;20129;-72
2022/04/25 11:09:45;;;;;;;12.32;6.15;;;11.00;99.90;;;;;;5024439;28;20043;-71
2022/04/25 11:12:10;;;;;;;10.98;6.47;;;11.00;99.90;;;;;;4992751;28;20039;-72
2022/04/25 11:14:36;;;;;;;13.15;6.85;;;11.10;99.90;;;;;;4999818;28;20423;-71
2022/04/25 11:17:11;;;;;;;11.07;6.78;;;11.10;99.90;;;;;;4991640;28;20038;-71
2022/04/25 11:19:49;;;;;;;11.48;6.57;;;11.20;99.90;;;;;;5025147;28;20545;-71
2022/04/25 11:22:29;;;;;;;10.15;6.30;;;11.20;99.90;;;;;;4992170;28;20039;-71
2022/04/25 11:24:54;;;;;;;12.77;6.50;;;11.10;99.90;;;;;;4976116;28;20034;-71
2022/04/25 11:27:21;;;;;;;11.30;6.38;;;11.10;99.90;;;;;;5025322;28;20042;-71
2022/04/25 11:30:14;;;;;;;12.05;6.60;;;11.10;99.90;;;;;;5020500;28;20093;-71
2022/04/25 11:32:43;;;;;;;11.23;6.43;;;11.10;99.90;;;;;;5008379;28;20513;-71
2022/04/25 11:35:09;;;;;;;12.25;6.40;;;11.20;99.90;;;;;;4976033;28;20399;-71
2022/04/25 11:37:35;;;;;;;13.70;6.72;;;11.30;99.90;;;;;;4990728;28;20038;-71
2022/04/25 11:40:06;;;;;;;13.18;6.53;;;11.30;99.90;;;;;;4971688;28;20038;-71
2022/04/25 11:42:34;;;;;;;13.88;7.63;;;11.40;99.90;;;;;;4972191;28;20122;-72
2022/04/25 11:45:01;;;;;;;11.77;6.95;;;11.40;99.90;;;;;;5011754;28;20042;-72
2022/04/25 11:47:28;;;;;;;12.27;6.70;;;11.40;99.90;;;;;;4991028;28;20050;-72
2022/04/25 11:50:04;;;;;;;13.18;7.55;;;11.50;99.90;;;;;;5011947;28;20445;-72
2022/04/25 11:52:29;;;;;;;12.68;7.05;;;11.50;99.90;;;;;;5011826;28;20089;-72
2022/04/25 11:54:55;;;;;;;10.23;7.10;;;11.50;99.90;;;;;;5003081;28;20046;-71
2022/04/25 11:57:21;;;;;;;13.50;7.10;;;11.40;99.90;;;;;;4975565;28;20112;-71
2022/04/25 11:59:47;;;;;;;11.45;7.10;;;11.40;99.90;;;;;;4995247;28;20037;-71
2022/04/25 12:02:13;;;;;;;11.48;6.78;;;11.30;99.90;;;;;;5011322;28;20038;-71
2022/04/25 12:04:39;;;;;;;10.85;6.95;;;11.40;99.90;;;;;;4990017;28;20081;-71
2022/04/25 12:07:10;;;;;;;10.85;7.22;;;11.50;99.90;;;;;;4995506;28;20120;-71
2022/04/25 12:15:40;;;;;;;10.98;8.32;;;11.70;99.90;;;;;;4986952;28;20407;-71
2022/04/25 12:18:26;;;;;;;12.50;8.27;;;11.70;99.90;;;;;;5023054;28;20031;-72
2022/04/25 12:21:02;;;;;;;13.52;7.93;;;11.90;99.90;;;;;;4978530;28;20054;-72
2022/04/25 12:23:39;;;;;;;12.70;7.60;;;11.90;99.90;;;;;;5019970;28;20074;-72
2022/04/25 12:26:08;;;;;;;15.82;8.90;;;12.00;99.90;;;;;;4981689;28;20038;-72
2022/04/25 12:28:38;;;;;;;12.65;7.65;;;11.90;99.90;;;;;;5027210;28;20514;-72
2022/04/25 12:31:07;;;;;;;11.43;7.70;;;12.00;99.90;;;;;;4991800;28;20042;-72
2022/04/25 12:33:40;;;;;;;11.55;7.10;;;12.10;99.90;;;;;;5030671;28;20148;-72
2022/04/25 12:36:20;;;;;;;14.25;7.80;;;12.30;99.90;;;;;;4981596;28;20046;-72
2022/04/25 12:39:13;;;;;;;11.25;6.57;;;12.40;99.90;;;;;;5026894;28;20047;-72
2022/04/25 12:41:41;;;;;;;12.85;7.60;;;12.50;99.90;;;;;;4969931;28;20486;-72
2022/04/25 12:44:09;;;;;;;13.00;7.07;;;12.60;99.90;;;;;;5030452;28;20045;-72
2022/04/25 12:46:44;;;;;;;11.40;7.22;;;12.70;99.90;;;;;;4999067;28;20113;-72
2022/04/25 12:49:17;;;;;;;11.88;6.97;;;12.80;99.90;;;;;;4978564;28;20050;-72
2022/04/25 12:51:52;;;;;;;11.18;7.32;;;12.70;99.90;;;;;;4999978;28;20050;-72
2022/04/25 12:54:37;;;;;;;12.98;7.40;;;12.80;99.90;;;;;;4988021;28;20375;-72
2022/04/25 12:57:16;;;;;;;11.77;7.47;;;12.80;99.90;;;;;;4998991;28;20431;-72
2022/04/25 12:59:57;;;;;;;12.55;7.60;;;12.80;99.90;;;;;;4990036;28;20478;-72
2022/04/25 13:02:32;;;;;;;10.63;7.30;;;12.90;99.90;;;;;;5011275;28;20443;-72
2022/04/25 13:05:00;;;;;;;11.60;7.53;;;12.90;99.90;;;;;;5011324;28;20461;-72
2022/04/25 13:07:30;;;;;;;11.25;7.60;;;12.80;99.90;;;;;;5030095;28;20482;-72
2022/04/25 13:09:57;;;;;;;10.82;6.57;;;12.70;99.90;;;;;;5030695;28;20133;-72
2022/04/25 13:12:46;;;;;;;11.32;6.68;;;12.70;99.90;;;;;;4988252;28;20134;-72
2022/04/25 13:15:14;;;;;;;10.70;6.88;;;12.60;99.90;;;;;;5005035;28;20049;-73
2022/04/25 13:17:41;;;;;;;14.32;7.50;;;12.60;99.90;;;;;;5027557;28;20034;-72
2022/04/25 13:20:09;;;;;;;11.18;6.35;;;12.50;99.90;;;;;;5027168;28;20117;-73
2022/04/25 13:22:35;;;;;;;10.43;6.40;;;12.50;99.90;;;;;;4994544;28;20073;-73